Time;durP1;ratioP1;P1;durP2;ratioP2;P2;SDS_P1;SDS_P2;PMS_P1;PMS_P2;Temp;Humidity;BMP_temperature;BMP_pressure;BME280_temperature;BME280_humidity;BME280_pressure;Samples;Min_cycle;Max_cycle;Signal;HPM_P1;HPM_P2
2021/06/19 00:00:32;;;;;;;10.27;7.78;;;;;;;23.63;58.59;98710.50;3559635;40;20420;-59
2021/06/19 00:03:00;;;;;;;12.52;7.38;;;;;;;23.46;58.99;98718.97;3559988;40;20072;-58
2021/06/19 00:05:28;;;;;;;11.55;7.47;;;;;;;23.27;59.79;98718.00;3559622;40;20050;-60
2021/06/19 00:07:57;;;;;;;13.40;8.00;;;;;;;23.26;59.66;98716.41;3559546;40;20134;-58
2021/06/19 00:10:27;;;;;;;9.93;7.43;;;;;;;23.20;60.16;98724.53;3559625;40;20054;-58
2021/06/19 00:12:55;;;;;;;11.80;6.97;;;;;;;23.23;59.99;98726.66;3558534;40;20057;-58
2021/06/19 00:15:24;;;;;;;10.70;7.38;;;;;;;23.28;60.03;98733.94;3559607;40;20411;-57
2021/06/19 00:17:52;;;;;;;9.32;6.93;;;;;;;23.41;59.89;98736.00;3559410;40;20081;-58
2021/06/19 00:20:21;;;;;;;10.98;7.93;;;;;;;23.59;59.15;98728.34;3559456;40;20057;-58
2021/06/19 00:22:50;;;;;;;14.32;7.97;;;;;;;23.64;59.10;98739.94;3559804;40;20090;-60
2021/06/19 00:25:20;;;;;;;9.73;7.55;;;;;;;23.68;58.90;98726.72;3560802;40;20053;-59
2021/06/19 00:27:49;;;;;;;9.80;8.52;;;;;;;23.53;59.23;98734.88;3560087;40;20086;-58
2021/06/19 00:30:18;;;;;;;17.10;7.78;;;;;;;23.23;60.01;98734.75;3559724;40;20089;-57
2021/06/19 00:32:47;;;;;;;11.73;7.97;;;;;;;22.97;60.87;98742.13;3559773;40;20081;-58
2021/06/19 00:35:16;;;;;;;14.07;7.35;;;;;;;22.98;60.99;98745.63;3560087;40;20061;-58
2021/06/19 00:37:47;;;;;;;10.88;7.60;;;;;;;22.99;60.75;98744.56;3559119;40;20082;-58
2021/06/19 00:40:16;;;;;;;11.13;8.02;;;;;;;22.98;60.87;98742.94;3559452;40;20049;-58
2021/06/19 00:42:55;;;;;;;10.05;8.35;;;;;;;22.96;60.84;98748.59;3558551;40;20334;-58
2021/06/19 00:45:23;;;;;;;10.32;8.00;;;;;;;22.91;61.13;98743.25;3558986;40;20057;-58
2021/06/19 00:47:51;;;;;;;10.25;8.00;;;;;;;22.91;61.18;98740.53;3558962;40;20045;-58
2021/06/19 00:50:19;;;;;;;10.38;7.50;;;;;;;22.99;61.05;98745.38;3558835;40;20054;-59
2021/06/19 00:52:48;;;;;;;12.05;7.57;;;;;;;23.07;60.92;98741.28;3559189;40;20050;-57
2021/06/19 00:55:16;;;;;;;12.18;8.27;;;;;;;23.03;60.99;98745.63;3559381;40;20046;-58
2021/06/19 00:57:45;;;;;;;9.32;7.65;;;;;;;23.05;60.96;98750.72;3559001;40;20057;-58
2021/06/19 01:00:16;;;;;;;13.27;7.53;;;;;;;23.10;60.98;98748.81;3559048;40;20046;-59
2021/06/19 01:02:44;;;;;;;12.18;7.88;;;;;;;23.22;60.74;98748.50;3558998;40;20344;-58
2021/06/19 01:05:13;;;;;;;10.38;7.03;;;;;;;23.32;60.42;98753.06;3558952;40;20089;-59
2021/06/19 01:07:41;;;;;;;11.38;7.35;;;;;;;23.36;60.40;98748.72;3558935;40;20439;-57
2021/06/19 01:10:10;;;;;;;13.50;7.80;;;;;;;23.36;60.42;98749.53;3558885;40;20074;-57
2021/06/19 01:12:41;;;;;;;9.80;7.18;;;;;;;23.32;60.02;98750.38;3558828;40;20030;-58
2021/06/19 01:15:10;;;;;;;8.38;7.38;;;;;;;23.31;60.47;98740.63;3559044;40;20376;-58
2021/06/19 01:17:40;;;;;;;12.23;7.47;;;;;;;23.23;60.48;98750.13;3558565;40;20034;-58
2021/06/19 01:20:11;;;;;;;12.95;7.15;;;;;;;23.18;60.52;98744.75;3558927;40;20054;-57
2021/06/19 01:22:42;;;;;;;10.98;7.20;;;;;;;23.19;60.41;98752.56;3558862;40;20088;-58
2021/06/19 01:25:16;;;;;;;9.90;7.82;;;;;;;23.19;60.37;98749.06;3558938;40;20046;-57
2021/06/19 01:27:44;;;;;;;12.45;7.40;;;;;;;23.18;60.39;98752.84;3557879;40;20053;-58
2021/06/19 01:30:12;;;;;;;11.55;7.45;;;;;;;23.09;60.52;98763.38;3558838;40;20046;-58
2021/06/19 01:32:41;;;;;;;10.23;7.45;;;;;;;23.08;60.60;98764.47;3558868;40;20054;-57
2021/06/19 01:35:10;;;;;;;9.77;7.38;;;;;;;23.06;60.82;98772.00;3559189;40;20046;-57
2021/06/19 01:37:43;;;;;;;11.63;7.05;;;;;;;22.93;60.88;98770.72;3558652;40;20057;-57
2021/06/19 01:40:14;;;;;;;14.73;8.25;;;;;;;22.77;61.49;98771.78;3558849;40;20081;-58
2021/06/19 01:42:45;;;;;;;12.95;8.50;;;;;;;22.74;61.61;98770.47;3559463;40;20089;-58
2021/06/19 01:45:15;;;;;;;11.30;7.85;;;;;;;22.71;61.95;98770.22;3559113;40;20053;-58
2021/06/19 01:47:44;;;;;;;9.48;7.65;;;;;;;22.80;61.69;98765.06;3560470;40;20422;-57
2021/06/19 01:50:14;;;;;;;9.98;8.02;;;;;;;22.69;62.01;98765.06;3562363;40;20057;-58
2021/06/19 01:52:43;;;;;;;12.85;8.38;;;;;;;22.52;62.69;98775.34;3562999;40;20045;-63
2021/06/19 01:55:13;;;;;;;12.75;8.13;;;;;;;22.52;62.80;98769.97;3562511;40;20355;-57
2021/06/19 01:57:41;;;;;;;9.63;7.82;;;;;;;22.49;62.99;98771.31;3558619;40;20045;-58
2021/06/19 02:00:11;;;;;;;13.25;9.45;;;;;;;22.44;63.07;98765.91;3558856;40;20081;-57
2021/06/19 02:02:41;;;;;;;11.88;8.13;;;;;;;22.37;63.56;98756.50;3559175;40;20054;-57
2021/06/19 02:05:11;;;;;;;12.45;8.52;;;;;;;22.39;63.62;98759.75;3558516;40;20042;-60
2021/06/19 02:07:45;;;;;;;11.40;8.60;;;;;;;22.38;63.56;98752.75;3564431;40;20086;-59
2021/06/19 02:10:15;;;;;;;14.70;9.70;;;;;;;22.35;63.66;98753.28;3565257;40;20478;-59
2021/06/19 02:12:44;;;;;;;12.48;9.55;;;;;;;22.29;63.52;98747.09;3559176;40;20081;-58
2021/06/19 02:15:13;;;;;;;12.52;10.02;;;;;;;22.18;63.67;98740.09;3558772;40;20050;-59
2021/06/19 02:17:41;;;;;;;10.60;9.20;;;;;;;22.16;64.23;98740.34;3558486;40;20054;-58
2021/06/19 02:20:11;;;;;;;10.02;9.05;;;;;;;22.17;64.18;98743.88;3558859;40;20354;-59
2021/06/19 02:22:40;;;;;;;11.85;10.05;;;;;;;22.20;64.11;98738.72;3558877;40;20049;-59
2021/06/19 02:25:11;;;;;;;11.70;8.63;;;;;;;22.26;64.00;98742.25;3558942;40;20419;-58
2021/06/19 02:27:48;;;;;;;11.57;9.32;;;;;;;22.35;63.64;98743.31;3559030;40;20064;-58
2021/06/19 02:30:16;;;;;;;19.25;10.52;;;;;;;22.23;63.74;98743.59;3557540;40;20061;-58
2021/06/19 02:32:45;;;;;;;11.48;8.63;;;;;;;22.16;63.80;98747.63;3559137;40;20046;-58
2021/06/19 02:35:14;;;;;;;12.10;8.60;;;;;;;22.19;64.20;98742.50;3558772;40;20076;-58
2021/06/19 02:37:42;;;;;;;11.98;8.45;;;;;;;22.11;64.25;98747.59;3558238;40;20117;-57
2021/06/19 02:40:11;;;;;;;15.05;8.70;;;;;;;22.13;64.33;98745.50;3558517;40;20049;-57
2021/06/19 02:42:40;;;;;;;12.88;9.55;;;;;;;22.17;63.93;98744.69;3558337;40;20054;-58
2021/06/19 02:45:11;;;;;;;12.10;9.45;;;;;;;22.13;63.79;98748.19;3564594;40;20123;-59
2021/06/19 02:47:42;;;;;;;11.32;9.65;;;;;;;22.09;64.03;98750.56;3564700;40;20081;-59
2021/06/19 02:50:12;;;;;;;9.15;8.25;;;;;;;22.07;64.28;98750.03;3564968;40;20057;-58
2021/06/19 02:52:43;;;;;;;12.77;9.00;;;;;;;22.17;64.22;98747.38;3558667;40;20058;-58
2021/06/19 02:55:14;;;;;;;11.70;9.40;;;;;;;22.12;64.22;98752.69;3558342;40;20053;-58
2021/06/19 02:57:43;;;;;;;13.68;9.02;;;;;;;22.04;64.52;98752.44;3558043;40;20057;-60
2021/06/19 03:00:14;;;;;;;11.90;8.13;;;;;;;22.06;64.25;98753.78;3558172;40;20056;-58
2021/06/19 03:02:44;;;;;;;9.48;8.20;;;;;;;22.11;64.08;98759.16;3557780;40;20116;-59
2021/06/19 03:05:14;;;;;;;9.82;7.95;;;;;;;22.16;64.00;98761.88;3557546;40;20054;-58
2021/06/19 03:07:42;;;;;;;10.18;8.85;;;;;;;22.09;63.68;98766.72;3558431;40;20046;-57
2021/06/19 03:10:12;;;;;;;13.13;9.90;;;;;;;21.88;64.69;98763.22;3558953;40;20049;-57
2021/06/19 03:12:41;;;;;;;12.50;9.10;;;;;;;21.75;65.28;98771.78;3559252;40;20079;-57
2021/06/19 03:15:10;;;;;;;10.85;8.68;;;;;;;21.66;65.39;98770.69;3559170;40;20127;-57
2021/06/19 03:17:40;;;;;;;12.88;9.25;;;;;;;21.66;65.70;98763.41;3558839;40;20044;-58
2021/06/19 03:20:09;;;;;;;10.52;8.95;;;;;;;21.56;65.77;98765.28;3559107;40;20052;-58
2021/06/19 03:22:45;;;;;;;13.50;9.13;;;;;;;21.52;65.98;98789.22;3559985;40;20057;-58
2021/06/19 03:25:15;;;;;;;11.27;9.00;;;;;;;21.59;65.65;98789.75;3562263;40;20050;-58
2021/06/19 03:27:44;;;;;;;13.57;9.82;;;;;;;21.64;65.70;98789.78;3560428;40;20090;-58
2021/06/19 03:30:13;;;;;;;12.88;9.05;;;;;;;21.60;65.71;98794.09;3559684;40;20061;-61
2021/06/19 03:32:43;;;;;;;10.80;9.70;;;;;;;21.58;65.77;98800.78;3559601;40;20300;-58
2021/06/19 03:35:11;;;;;;;18.30;10.10;;;;;;;21.41;66.22;98806.38;3559450;40;20082;-59
2021/06/19 03:37:39;;;;;;;12.15;9.45;;;;;;;21.35;66.34;98800.19;3559292;40;20354;-59
2021/06/19 03:40:10;;;;;;;11.60;8.35;;;;;;;21.42;66.71;98816.88;3560708;40;20045;-60
2021/06/19 03:42:39;;;;;;;11.20;9.70;;;;;;;21.54;66.00;98808.56;3560396;40;20061;-59
2021/06/19 03:45:09;;;;;;;13.23;9.27;;;;;;;21.64;65.57;98814.00;3560420;40;20053;-59
2021/06/19 03:47:38;;;;;;;16.92;9.88;;;;;;;21.60;65.45;98812.91;3560447;40;20075;-59
2021/06/19 03:50:09;;;;;;;11.80;8.45;;;;;;;21.52;66.21;98808.03;3560622;40;20077;-59
2021/06/19 03:52:37;;;;;;;13.20;9.95;;;;;;;21.62;65.75;98813.44;3561661;40;20057;-58
2021/06/19 03:55:06;;;;;;;10.93;9.55;;;;;;;21.46;66.38;98815.25;3561810;40;20050;-58
2021/06/19 03:57:36;;;;;;;13.25;10.05;;;;;;;21.50;66.07;98819.03;3561796;40;20046;-58
2021/06/19 04:00:05;;;;;;;10.40;9.32;;;;;;;21.55;65.93;98820.94;3561389;40;20049;-59
2021/06/19 04:02:39;;;;;;;12.13;9.70;;;;;;;21.46;66.36;98819.84;3560723;40;66910;-58
2021/06/19 04:05:11;;;;;;;13.80;11.00;;;;;;;21.44;66.08;98820.13;3562604;40;20045;-59
2021/06/19 04:07:39;;;;;;;10.20;9.10;;;;;;;21.52;66.54;98824.97;3562253;40;20026;-59
2021/06/19 04:10:09;;;;;;;9.60;7.80;;;;;;;21.65;66.17;98829.06;3562210;40;20045;-59
2021/06/19 04:12:37;;;;;;;10.35;9.15;;;;;;;21.78;65.42;98825.06;3562132;40;20030;-59
2021/06/19 04:15:07;;;;;;;13.93;8.70;;;;;;;21.90;65.27;98824.81;3561502;40;20060;-59
2021/06/19 04:17:36;;;;;;;10.35;8.82;;;;;;;21.96;64.73;98826.44;3561139;40;20056;-60
2021/06/19 04:20:04;;;;;;;11.90;9.20;;;;;;;21.97;64.52;98828.88;3561319;40;20110;-59
2021/06/19 04:22:33;;;;;;;11.77;8.82;;;;;;;21.97;64.66;98831.56;3561330;40;20049;-60
2021/06/19 04:25:01;;;;;;;17.63;12.45;;;;;;;22.08;64.70;98835.06;3561852;40;20049;-57
2021/06/19 04:27:29;;;;;;;10.65;9.55;;;;;;;22.14;64.26;98833.25;3562103;40;20057;-58
2021/06/19 04:29:57;;;;;;;14.05;9.52;;;;;;;22.10;64.12;98832.94;3562285;40;20045;-58
2021/06/19 04:32:25;;;;;;;14.05;8.93;;;;;;;21.96;64.73;98829.13;3569398;40;20452;-58
2021/06/19 04:34:52;;;;;;;10.73;9.20;;;;;;;21.98;64.57;98830.50;3561734;40;20046;-58
2021/06/19 04:37:20;;;;;;;12.05;9.65;;;;;;;22.08;64.91;98845.03;3561913;40;20041;-58
2021/06/19 04:39:55;;;;;;;12.80;9.02;;;;;;;22.25;64.20;98848.34;3563665;40;20076;-57
2021/06/19 04:42:25;;;;;;;12.82;8.57;;;;;;;22.19;64.14;98849.41;3564332;40;20085;-57
2021/06/19 04:45:03;;;;;;;12.68;8.95;;;;;;;22.29;63.98;98848.59;3564842;40;20086;-58
2021/06/19 04:47:33;;;;;;;11.90;9.73;;;;;;;22.38;63.51;98855.09;3563992;40;20131;-59
2021/06/19 04:50:01;;;;;;;12.40;9.07;;;;;;;22.37;63.58;98851.59;3563896;40;20101;-58
2021/06/19 04:52:33;;;;;;;10.32;9.23;;;;;;;22.54;63.50;98855.91;3564204;40;20069;-59
2021/06/19 04:55:03;;;;;;;13.27;9.07;;;;;;;22.62;62.71;98855.38;3563748;40;20042;-59
2021/06/19 04:57:32;;;;;;;14.40;8.90;;;;;;;22.63;62.68;98852.38;3563170;40;20077;-58
2021/06/19 04:59:59;;;;;;;11.60;8.43;;;;;;;22.72;62.90;98856.16;3563571;40;20366;-59
2021/06/19 05:02:27;;;;;;;13.75;8.85;;;;;;;22.88;62.57;98856.94;3562122;40;20078;-59
2021/06/19 05:04:55;;;;;;;24.00;19.70;;;;;;;22.98;62.00;98864.22;3562437;40;20360;-59
2021/06/19 05:07:22;;;;;;;17.83;9.02;;;;;;;23.07;61.75;98849.16;3563134;40;20053;-58
2021/06/19 05:09:50;;;;;;;11.90;8.07;;;;;;;23.16;61.35;98846.69;3563987;40;20074;-59
2021/06/19 05:12:19;;;;;;;10.52;8.40;;;;;;;23.31;61.41;98845.81;3564014;40;20435;-58
2021/06/19 05:14:47;;;;;;;9.63;8.50;;;;;;;23.40;61.01;98847.69;3563935;40;20299;-58
2021/06/19 05:17:15;;;;;;;14.27;9.27;;;;;;;23.46;60.64;98849.28;3562567;40;20060;-60
2021/06/19 05:19:42;;;;;;;12.60;9.90;;;;;;;23.54;60.64;98849.78;3562240;40;20052;-57
2021/06/19 05:22:10;;;;;;;9.02;5.97;;;;;;;23.67;59.59;98841.13;3562594;40;20061;-58
2021/06/19 05:24:41;;;;;;;11.65;5.55;;;;;;;23.75;58.36;98847.84;3561962;40;20049;-58
2021/06/19 05:27:09;;;;;;;6.22;4.22;;;;;;;23.80;57.71;98843.25;3562587;40;20418;-58
2021/06/19 05:29:38;;;;;;;9.68;4.57;;;;;;;23.86;57.47;98847.50;3562499;40;20053;-58
2021/06/19 05:32:07;;;;;;;5.80;4.00;;;;;;;23.91;56.92;98850.19;3562815;40;20046;-60
2021/06/19 05:34:35;;;;;;;8.85;4.75;;;;;;;23.92;56.63;98849.13;3562776;40;20034;-58
2021/06/19 05:37:03;;;;;;;5.20;4.05;;;;;;;23.98;56.56;98845.28;3563125;40;20052;-58
2021/06/19 05:39:31;;;;;;;6.40;3.92;;;;;;;24.09;56.22;98847.94;3563443;40;20371;-57
2021/06/19 05:41:59;;;;;;;7.65;4.32;;;;;;;24.12;55.78;98850.06;3563608;40;20042;-57
2021/06/19 05:44:27;;;;;;;4.80;4.25;;;;;;;24.15;55.75;98844.09;3563873;40;20049;-60
2021/06/19 05:46:56;;;;;;;10.63;4.25;;;;;;;24.20;55.74;98844.06;3563172;40;20057;-60
2021/06/19 05:49:32;;;;;;;6.72;3.50;;;;;;;24.32;55.34;98841.81;3563300;40;20391;-59
2021/06/19 05:52:00;;;;;;;6.15;4.20;;;;;;;24.45;55.05;98840.38;3563525;40;20050;-58
2021/06/19 05:54:27;;;;;;;9.20;6.45;;;;;;;24.57;54.75;98843.53;3562887;40;20046;-59
2021/06/19 05:56:56;;;;;;;6.93;3.70;;;;;;;24.61;54.37;98835.66;3563127;40;20080;-57
2021/06/19 05:59:24;;;;;;;5.32;3.88;;;;;;;24.60;54.24;98839.47;3562275;40;20045;-58
2021/06/19 06:01:52;;;;;;;6.03;3.90;;;;;;;24.61;54.56;98843.78;3562237;40;20078;-59
2021/06/19 06:04:21;;;;;;;5.28;3.90;;;;;;;24.70;54.47;98832.09;3562282;40;20108;-59
2021/06/19 06:06:49;;;;;;;8.45;4.05;;;;;;;24.74;54.20;98836.91;3561983;40;20064;-59
2021/06/19 06:09:17;;;;;;;7.75;3.80;;;;;;;24.83;53.81;98837.91;3561957;40;20053;-59
2021/06/19 06:11:45;;;;;;;7.00;4.28;;;;;;;24.83;53.85;98838.72;3561951;40;20058;-58
2021/06/19 06:14:12;;;;;;;5.57;4.40;;;;;;;24.83;54.03;98833.31;3561736;40;20362;-58
2021/06/19 06:16:40;;;;;;;8.38;6.65;;;;;;;24.85;54.09;98833.81;3560152;40;20081;-59
2021/06/19 06:19:09;;;;;;;8.25;4.20;;;;;;;24.81;53.77;98832.78;3558809;40;20399;-58
2021/06/19 06:21:38;;;;;;;4.38;3.90;;;;;;;24.66;54.17;98831.03;3560061;40;20386;-60
2021/06/19 06:24:06;;;;;;;6.47;4.57;;;;;;;24.71;53.96;98841.81;3560479;40;20049;-59
2021/06/19 06:26:34;;;;;;;6.85;4.70;;;;;;;24.67;54.01;98840.75;3560340;40;20057;-59
2021/06/19 06:29:02;;;;;;;6.93;4.32;;;;;;;24.75;53.70;98844.75;3560965;40;20507;-58
2021/06/19 06:31:49;;;;;;;8.38;4.55;;;;;;;24.78;53.86;98846.06;3560771;40;20127;-59
2021/06/19 06:34:18;;;;;;;4.85;3.65;;;;;;;24.85;53.86;98846.53;3560916;40;20056;-59
2021/06/19 06:36:48;;;;;;;4.25;3.25;;;;;;;24.89;53.03;98844.88;3560444;40;20045;-57
2021/06/19 06:39:16;;;;;;;6.72;5.60;;;;;;;24.87;53.34;98849.78;3561062;40;20053;-58
2021/06/19 06:41:44;;;;;;;9.43;3.35;;;;;;;24.89;52.98;98848.38;3561990;40;20046;-58
2021/06/19 06:44:12;;;;;;;5.15;3.50;;;;;;;24.92;52.70;98853.22;3563442;40;20057;-58
2021/06/19 06:46:40;;;;;;;8.73;3.20;;;;;;;25.05;52.22;98853.66;3562987;40;20049;-58
2021/06/19 06:49:08;;;;;;;3.88;3.40;;;;;;;25.19;52.06;98860.03;3562417;40;20054;-58
2021/06/19 06:51:37;;;;;;;3.20;2.65;;;;;;;25.25;51.04;98852.66;3563570;40;20061;-59
2021/06/19 06:54:07;;;;;;;4.82;3.35;;;;;;;25.29;51.25;98856.41;3563501;40;20058;-59
2021/06/19 06:56:35;;;;;;;5.75;3.83;;;;;;;25.35;50.55;98850.66;3562898;40;20050;-59
2021/06/19 06:59:03;;;;;;;7.40;4.85;;;;;;;25.30;50.73;98853.41;3563771;40;20030;-59
2021/06/19 07:01:30;;;;;;;5.10;3.80;;;;;;;25.29;50.87;98856.41;3564354;40;20343;-60
2021/06/19 07:03:59;;;;;;;4.85;3.85;;;;;;;25.32;50.33;98851.22;3564358;40;20115;-59
2021/06/19 07:06:27;;;;;;;4.68;2.80;;;;;;;25.41;49.80;98851.38;3562904;40;20048;-58
2021/06/19 07:08:55;;;;;;;2.67;2.00;;;;;;;25.45;49.37;98847.81;3563670;40;20135;-58
2021/06/19 07:11:24;;;;;;;4.13;2.78;;;;;;;25.50;48.45;98846.94;3562119;40;20038;-58
2021/06/19 07:13:52;;;;;;;3.92;3.00;;;;;;;25.56;48.99;98840.38;3563731;40;20066;-57
2021/06/19 07:16:20;;;;;;;6.50;3.00;;;;;;;25.72;48.46;98841.00;3562914;40;20053;-57
2021/06/19 07:18:48;;;;;;;3.35;2.10;;;;;;;25.80;47.85;98844.97;3570003;40;20399;-60
2021/06/19 07:21:16;;;;;;;4.50;3.03;;;;;;;25.87;47.79;98848.13;3562817;40;20054;-58
2021/06/19 07:23:44;;;;;;;8.27;4.28;;;;;;;25.94;47.21;98848.56;3562882;40;20033;-58
2021/06/19 07:26:12;;;;;;;4.55;2.40;;;;;;;26.05;46.93;98854.66;3561471;40;20054;-61
2021/06/19 07:28:43;;;;;;;3.47;2.67;;;;;;;26.13;46.89;98856.72;3561989;40;20492;-58
2021/06/19 07:31:14;;;;;;;2.88;2.10;;;;;;;26.15;46.78;98858.00;3562222;40;20431;-57
2021/06/19 07:33:42;;;;;;;7.18;3.63;;;;;;;26.15;46.34;98860.72;3562665;40;20057;-58
2021/06/19 07:36:10;;;;;;;3.67;2.28;;;;;;;26.23;46.66;98859.25;3562599;40;20513;-58
2021/06/19 07:38:38;;;;;;;4.95;3.08;;;;;;;26.35;46.67;98859.63;3562978;40;20054;-60
2021/06/19 07:41:06;;;;;;;3.53;2.25;;;;;;;26.47;46.24;98856.47;3563148;40;20065;-58
2021/06/19 07:43:34;;;;;;;4.78;3.00;;;;;;;26.52;45.86;98856.41;3563408;40;20061;-59
2021/06/19 07:46:03;;;;;;;3.72;2.60;;;;;;;26.55;45.55;98861.22;3563807;40;20057;-60
2021/06/19 07:48:31;;;;;;;2.47;1.95;;;;;;;26.60;45.42;98853.00;3563446;40;20054;-59
2021/06/19 07:50:59;;;;;;;3.83;2.47;;;;;;;26.66;44.46;98856.47;3562875;40;20057;-59
2021/06/19 07:53:27;;;;;;;2.88;1.60;;;;;;;26.63;44.64;98849.72;3561420;40;20045;-58
2021/06/19 07:55:55;;;;;;;4.43;2.20;;;;;;;26.66;44.57;98849.13;3562140;40;20124;-58
2021/06/19 07:58:23;;;;;;;2.53;2.15;;;;;;;26.74;44.76;98846.81;3561825;40;20045;-58
2021/06/19 08:00:51;;;;;;;5.88;1.77;;;;;;;26.73;44.23;98847.91;3563108;40;20060;-58
2021/06/19 08:03:20;;;;;;;3.97;2.55;;;;;;;26.77;44.18;98841.59;3562887;40;20049;-58
2021/06/19 08:05:48;;;;;;;3.47;1.70;;;;;;;26.89;43.65;98835.69;3563924;40;20455;-61
2021/06/19 08:08:16;;;;;;;4.40;1.88;;;;;;;27.03;43.98;98835.75;3563660;40;20048;-58
2021/06/19 08:10:44;;;;;;;3.22;2.03;;;;;;;27.06;43.79;98832.41;3564721;40;20046;-57
2021/06/19 08:13:12;;;;;;;6.43;2.33;;;;;;;27.06;44.06;98825.06;3564094;40;20085;-58
2021/06/19 08:15:40;;;;;;;4.22;3.20;;;;;;;27.12;44.34;98815.78;3571315;40;20050;-58
2021/06/19 08:18:08;;;;;;;4.60;3.30;;;;;;;27.20;44.25;98814.25;3570752;40;20037;-57
2021/06/19 08:20:38;;;;;;;3.67;2.35;;;;;;;27.26;43.95;98814.97;3563832;40;20045;-58
2021/06/19 08:23:06;;;;;;;2.65;1.75;;;;;;;27.36;43.65;98812.06;3563245;40;20042;-58
2021/06/19 08:25:34;;;;;;;5.15;2.28;;;;;;;27.45;43.12;98804.00;3562546;40;20049;-61
2021/06/19 08:28:02;;;;;;;3.58;2.50;;;;;;;27.45;43.27;98807.50;3561364;40;20110;-60
2021/06/19 08:30:30;;;;;;;3.22;2.00;;;;;;;27.47;43.66;98799.84;3562469;40;20344;-59
2021/06/19 08:32:58;;;;;;;4.97;2.17;;;;;;;27.48;43.53;98795.25;3562410;40;20135;-59
2021/06/19 08:35:26;;;;;;;2.83;2.10;;;;;;;27.50;43.24;98796.53;3563446;40;20057;-60
2021/06/19 08:37:55;;;;;;;4.68;2.50;;;;;;;27.50;42.94;98784.88;3563361;40;20407;-59
2021/06/19 08:40:23;;;;;;;3.45;3.08;;;;;;;27.48;43.23;98777.06;3563213;40;20135;-59
2021/06/19 08:42:51;;;;;;;4.43;3.30;;;;;;;27.35;43.65;98777.84;3561783;40;20502;-60
2021/06/19 08:45:22;;;;;;;5.07;2.47;;;;;;;27.33;43.38;98782.78;3560850;40;20046;-58
2021/06/19 08:47:50;;;;;;;3.05;2.30;;;;;;;27.36;43.54;98780.28;3560460;40;20050;-58
2021/06/19 08:50:18;;;;;;;4.78;2.55;;;;;;;27.52;43.38;98766.41;3561720;40;20081;-59
2021/06/19 08:52:47;;;;;;;3.40;2.50;;;;;;;27.69;42.88;98765.75;3563098;40;20050;-58
2021/06/19 08:55:17;;;;;;;3.80;2.50;;;;;;;27.76;42.88;98769.69;3562823;40;20097;-60
2021/06/19 08:57:46;;;;;;;5.00;2.50;;;;;;;27.85;42.64;98769.75;3570329;40;20135;-59
2021/06/19 09:00:16;;;;;;;2.40;2.20;;;;;;;27.89;42.52;98768.03;3561495;40;20075;-58
2021/06/19 09:02:47;;;;;;;5.97;4.97;;;;;;;27.99;42.79;98764.25;3562423;40;20046;-58
2021/06/19 09:05:17;;;;;;;5.72;3.15;;;;;;;28.17;42.43;98767.91;3560904;40;20391;-58
2021/06/19 09:07:47;;;;;;;4.72;2.33;;;;;;;28.15;42.52;98751.91;3561582;40;20080;-58
2021/06/19 09:10:24;;;;;;;7.05;3.28;;;;;;;28.26;42.22;98749.75;3562553;40;20042;-59
2021/06/19 09:13:05;;;;;;;5.65;2.80;;;;;;;28.45;42.19;98742.19;3562413;40;20422;-58
2021/06/19 09:15:36;;;;;;;5.38;2.90;;;;;;;28.52;41.81;98739.84;3563208;40;20056;-58
2021/06/19 09:18:07;;;;;;;3.50;2.70;;;;;;;28.61;41.73;98743.41;3562474;40;20050;-59
2021/06/19 09:20:38;;;;;;;2.83;2.35;;;;;;;28.69;41.06;98732.88;3562044;40;20074;-60
2021/06/19 09:23:10;;;;;;;4.28;2.75;;;;;;;28.82;41.36;98723.81;3562590;40;20050;-58
2021/06/19 09:25:39;;;;;;;6.88;2.90;;;;;;;29.02;41.06;98722.47;3561557;40;20127;-58
2021/06/19 09:28:09;;;;;;;5.05;2.55;;;;;;;29.04;40.11;98715.59;3560512;40;20057;-58
2021/06/19 09:30:39;;;;;;;3.88;2.88;;;;;;;28.98;40.51;98711.41;3559434;40;20046;-58
2021/06/19 09:33:08;;;;;;;4.43;2.95;;;;;;;28.90;40.96;98712.16;3561174;40;20042;-59
2021/06/19 09:35:38;;;;;;;3.78;2.78;;;;;;;28.78;40.63;98698.34;3560059;40;20062;-58
2021/06/19 09:38:08;;;;;;;6.20;3.28;;;;;;;28.84;41.12;98694.38;3559592;40;20050;-56
2021/06/19 09:40:39;;;;;;;3.88;2.85;;;;;;;28.94;40.62;98687.84;3559734;40;20324;-58
2021/06/19 09:43:13;;;;;;;7.88;3.40;;;;;;;29.10;40.21;98681.66;3559749;40;20081;-57
2021/06/19 09:45:46;;;;;;;4.97;3.22;;;;;;;29.22;40.43;98672.06;3559801;40;20093;-58
2021/06/19 09:48:27;;;;;;;4.72;3.28;;;;;;;29.31;39.96;98665.53;3559210;40;20326;-58
2021/06/19 09:51:15;;;;;;;7.60;3.20;;;;;;;29.35;39.66;98661.06;3560778;40;20053;-58
2021/06/19 09:53:44;;;;;;;6.63;3.50;;;;;;;29.30;40.23;98661.19;3560962;40;20053;-58
2021/06/19 09:56:15;;;;;;;6.90;4.28;;;;;;;29.48;40.50;98666.66;3559494;40;20081;-59
2021/06/19 09:58:44;;;;;;;4.13;3.15;;;;;;;29.58;39.52;98655.47;3559869;40;20072;-57
2021/06/19 10:01:35;;;;;;;8.90;4.53;;;;;;;29.58;40.08;98658.97;3559975;40;20367;-58
2021/06/19 10:04:04;;;;;;;7.53;3.97;;;;;;;29.63;39.60;98657.22;3559593;40;20046;-59
2021/06/19 10:06:35;;;;;;;10.85;3.83;;;;;;;29.64;39.36;98651.47;3559302;40;20054;-58
2021/06/19 10:09:05;;;;;;;8.10;3.60;;;;;;;29.66;39.71;98641.03;3558178;40;20053;-59
2021/06/19 10:11:34;;;;;;;6.03;3.95;;;;;;;29.74;40.45;98642.16;3559754;40;20046;-58
2021/06/19 10:14:03;;;;;;;6.72;3.72;;;;;;;29.95;39.76;98645.78;3559318;40;20046;-58
2021/06/19 10:16:31;;;;;;;4.30;3.67;;;;;;;29.99;40.10;98646.75;3559119;40;20049;-58
2021/06/19 10:18:59;;;;;;;8.35;4.40;;;;;;;30.19;39.50;98649.94;3559360;40;20056;-58
2021/06/19 10:21:27;;;;;;;7.63;4.30;;;;;;;30.40;39.81;98641.84;3558311;40;20076;-58
2021/06/19 10:23:55;;;;;;;5.38;3.70;;;;;;;30.42;40.04;98637.66;3559352;40;20437;-58
2021/06/19 10:26:24;;;;;;;5.22;3.70;;;;;;;30.58;39.17;98643.38;3559095;40;20085;-58
2021/06/19 10:28:57;;;;;;;7.57;4.03;;;;;;;30.46;39.32;98643.28;3559474;40;20074;-59
2021/06/19 10:31:26;;;;;;;5.57;3.80;;;;;;;30.41;39.79;98637.97;3558883;40;20304;-59
2021/06/19 10:33:54;;;;;;;6.43;4.07;;;;;;;30.47;40.05;98637.47;3559090;40;20045;-58
2021/06/19 10:36:38;;;;;;;8.48;4.22;;;;;;;30.54;39.94;98626.84;3558961;40;20036;-58
2021/06/19 10:39:06;;;;;;;5.65;4.47;;;;;;;30.61;39.32;98631.78;3558272;40;20053;-58
2021/06/19 10:41:50;;;;;;;5.22;4.00;;;;;;;30.66;38.57;98634.34;3559970;40;20303;-59
2021/06/19 10:44:49;;;;;;;9.52;3.70;;;;;;;30.65;38.96;98634.66;3558947;40;20358;-58
2021/06/19 10:47:18;;;;;;;7.25;4.72;;;;;;;30.66;38.91;98626.16;3558689;40;20089;-57
2021/06/19 10:49:46;;;;;;;4.55;3.80;;;;;;;30.88;38.84;98627.03;3559111;40;20388;-58
2021/06/19 10:52:23;;;;;;;6.40;4.05;;;;;;;31.13;38.53;98619.78;3558930;40;20112;-56
2021/06/19 10:55:29;;;;;;;6.80;4.00;;;;;;;31.30;38.05;98617.72;3558832;40;20396;-58
2021/06/19 10:58:01;;;;;;;8.00;4.20;;;;;;;31.51;37.61;98606.78;3558498;40;20054;-57
2021/06/19 11:00:34;;;;;;;5.43;3.67;;;;;;;31.76;36.47;98613.16;3558921;40;20159;-58
2021/06/19 11:03:04;;;;;;;9.73;4.75;;;;;;;31.77;36.32;98608.47;3558819;40;20042;-60
2021/06/19 11:05:57;;;;;;;7.93;3.50;;;;;;;31.88;35.72;98593.25;3559032;40;20050;-58
2021/06/19 11:08:26;;;;;;;10.63;4.25;;;;;;;31.93;35.53;98595.78;3558744;40;20049;-58
2021/06/19 11:11:00;;;;;;;8.10;4.05;;;;;;;32.05;34.56;98595.81;3558900;40;20045;-59
2021/06/19 11:13:48;;;;;;;9.82;3.90;;;;;;;32.05;34.70;98590.34;3558888;40;20053;-56
2021/06/19 11:16:53;;;;;;;8.15;4.40;;;;;;;31.94;34.89;98591.13;3559016;40;20053;-57
2021/06/19 11:19:42;;;;;;;8.43;4.85;;;;;;;32.07;34.86;98590.00;3559288;40;20050;-58
2021/06/19 11:22:31;;;;;;;14.45;4.60;;;;;;;32.25;33.25;98585.09;3561178;40;20058;-57
2021/06/19 11:25:21;;;;;;;8.73;5.20;;;;;;;32.11;33.52;98581.91;3561919;40;20073;-57
2021/06/19 11:27:51;;;;;;;6.45;4.13;;;;;;;32.09;33.64;98582.25;3561792;40;20034;-57
2021/06/19 11:31:02;;;;;;;11.73;5.65;;;;;;;32.20;33.70;98588.06;3563154;40;20050;-58
2021/06/19 11:33:54;;;;;;;13.60;5.22;;;;;;;32.57;32.98;98588.09;3555358;40;20074;-58
2021/06/19 11:36:40;;;;;;;6.20;4.47;;;;;;;32.66;32.79;98564.97;3562587;40;20053;-58
2021/06/19 11:39:14;;;;;;;11.30;5.10;;;;;;;32.55;33.48;98567.34;3562998;40;20065;-57
2021/06/19 11:41:46;;;;;;;10.73;5.07;;;;;;;32.58;33.75;98574.09;3562514;40;20042;-58
2021/06/19 11:44:34;;;;;;;16.63;5.50;;;;;;;32.59;33.59;98567.47;3562907;40;20108;-58